sensor_id;sensor_type;location;lat;lon;timestamp;temperature;humidity
62916;DHT22;49010;51.230;-2.306;2022-07-19T00:00:18;26.40;42.90
62916;DHT22;49010;51.230;-2.306;2022-07-19T00:04:00;26.40;40.70
62916;DHT22;49010;51.230;-2.306;2022-07-19T00:07:44;26.40;41.00
62916;DHT22;49010;51.230;-2.306;2022-07-19T00:11:27;26.50;41.90
62916;DHT22;49010;51.230;-2.306;2022-07-19T00:15:10;26.50;40.70
62916;DHT22;49010;51.230;-2.306;2022-07-19T00:18:53;26.60;46.60
62916;DHT22;49010;51.230;-2.306;2022-07-19T00:22:35;26.50;42.40
62916;DHT22;49010;51.230;-2.306;2022-07-19T00:26:17;26.50;41.10
62916;DHT22;49010;51.230;-2.306;2022-07-19T00:29:59;26.50;40.90
62916;DHT22;49010;51.230;-2.306;2022-07-19T00:33:41;26.50;40.00
62916;DHT22;49010;51.230;-2.306;2022-07-19T00:37:22;26.60;40.20
62916;DHT22;49010;51.230;-2.306;2022-07-19T00:41:04;26.60;40.40
62916;DHT22;49010;51.230;-2.306;2022-07-19T00:44:46;26.60;39.50
62916;DHT22;49010;51.230;-2.306;2022-07-19T00:48:28;26.60;41.20
62916;DHT22;49010;51.230;-2.306;2022-07-19T00:52:10;26.60;39.90
62916;DHT22;49010;51.230;-2.306;2022-07-19T00:55:56;26.70;40.00
62916;DHT22;49010;51.230;-2.306;2022-07-19T00:59:38;26.70;40.30
62916;DHT22;49010;51.230;-2.306;2022-07-19T01:03:20;26.70;40.20
62916;DHT22;49010;51.230;-2.306;2022-07-19T01:07:02;26.60;40.10
62916;DHT22;49010;51.230;-2.306;2022-07-19T01:10:45;26.60;40.00
62916;DHT22;49010;51.230;-2.306;2022-07-19T01:14:26;26.60;39.80
62916;DHT22;49010;51.230;-2.306;2022-07-19T01:18:09;26.60;40.10
62916;DHT22;49010;51.230;-2.306;2022-07-19T01:21:51;26.60;40.30
62916;DHT22;49010;51.230;-2.306;2022-07-19T01:25:35;26.50;40.30
62916;DHT22;49010;51.230;-2.306;2022-07-19T01:29:17;26.50;40.60
62916;DHT22;49010;51.230;-2.306;2022-07-19T01:33:00;26.40;40.90
62916;DHT22;49010;51.230;-2.306;2022-07-19T01:36:42;26.30;43.40
62916;DHT22;49010;51.230;-2.306;2022-07-19T01:40:24;26.20;45.50
62916;DHT22;49010;51.230;-2.306;2022-07-19T01:44:06;25.90;44.20
62916;DHT22;49010;51.230;-2.306;2022-07-19T01:47:48;25.80;42.70
62916;DHT22;49010;51.230;-2.306;2022-07-19T01:51:30;25.80;42.30
62916;DHT22;49010;51.230;-2.306;2022-07-19T01:55:12;25.80;42.20
62916;DHT22;49010;51.230;-2.306;2022-07-19T01:58:54;25.80;42.00
62916;DHT22;49010;51.230;-2.306;2022-07-19T02:02:36;25.70;41.70
62916;DHT22;49010;51.230;-2.306;2022-07-19T02:06:18;25.80;41.70
62916;DHT22;49010;51.230;-2.306;2022-07-19T02:10:00;25.80;42.00
62916;DHT22;49010;51.230;-2.306;2022-07-19T02:13:42;25.80;41.70
62916;DHT22;49010;51.230;-2.306;2022-07-19T02:17:24;25.80;42.30
62916;DHT22;49010;51.230;-2.306;2022-07-19T02:21:06;25.80;42.60
62916;DHT22;49010;51.230;-2.306;2022-07-19T02:24:48;25.70;42.30
62916;DHT22;49010;51.230;-2.306;2022-07-19T02:28:29;25.70;42.40
62916;DHT22;49010;51.230;-2.306;2022-07-19T02:32:11;25.70;42.40
62916;DHT22;49010;51.230;-2.306;2022-07-19T02:35:53;25.70;43.10
62916;DHT22;49010;51.230;-2.306;2022-07-19T02:39:35;25.60;43.00
62916;DHT22;49010;51.230;-2.306;2022-07-19T02:43:17;25.50;43.00
62916;DHT22;49010;51.230;-2.306;2022-07-19T02:46:59;25.50;44.00
62916;DHT22;49010;51.230;-2.306;2022-07-19T02:50:42;25.40;43.50
62916;DHT22;49010;51.230;-2.306;2022-07-19T02:54:24;25.40;43.80
62916;DHT22;49010;51.230;-2.306;2022-07-19T02:58:06;25.30;44.40
62916;DHT22;49010;51.230;-2.306;2022-07-19T03:01:48;25.20;44.30
62916;DHT22;49010;51.230;-2.306;2022-07-19T03:05:29;25.20;45.00
62916;DHT22;49010;51.230;-2.306;2022-07-19T03:09:11;25.20;46.70
62916;DHT22;49010;51.230;-2.306;2022-07-19T03:12:53;25.10;46.70
62916;DHT22;49010;51.230;-2.306;2022-07-19T03:16:35;25.00;47.00
62916;DHT22;49010;51.230;-2.306;2022-07-19T03:20:17;24.90;46.40
62916;DHT22;49010;51.230;-2.306;2022-07-19T03:23:59;24.90;46.30
62916;DHT22;49010;51.230;-2.306;2022-07-19T03:27:41;24.80;47.10
62916;DHT22;49010;51.230;-2.306;2022-07-19T03:31:23;24.70;47.00
62916;DHT22;49010;51.230;-2.306;2022-07-19T03:35:06;24.70;47.30
62916;DHT22;49010;51.230;-2.306;2022-07-19T03:38:48;24.60;47.80
62916;DHT22;49010;51.230;-2.306;2022-07-19T03:42:30;24.50;48.10
62916;DHT22;49010;51.230;-2.306;2022-07-19T03:46:12;24.40;48.40
62916;DHT22;49010;51.230;-2.306;2022-07-19T03:49:54;24.40;48.20
62916;DHT22;49010;51.230;-2.306;2022-07-19T03:53:36;24.30;48.20
62916;DHT22;49010;51.230;-2.306;2022-07-19T03:57:18;24.30;48.00
62916;DHT22;49010;51.230;-2.306;2022-07-19T04:01:00;24.20;48.60
62916;DHT22;49010;51.230;-2.306;2022-07-19T04:04:42;24.20;48.70
62916;DHT22;49010;51.230;-2.306;2022-07-19T04:08:24;24.10;48.60
62916;DHT22;49010;51.230;-2.306;2022-07-19T04:12:05;24.10;49.90
62916;DHT22;49010;51.230;-2.306;2022-07-19T04:15:47;24.00;49.80
62916;DHT22;49010;51.230;-2.306;2022-07-19T04:19:30;24.00;50.10
62916;DHT22;49010;51.230;-2.306;2022-07-19T04:23:12;23.90;49.70
62916;DHT22;49010;51.230;-2.306;2022-07-19T04:26:54;23.90;50.10
62916;DHT22;49010;51.230;-2.306;2022-07-19T04:30:36;23.80;50.20
62916;DHT22;49010;51.230;-2.306;2022-07-19T04:34:17;23.80;50.70
62916;DHT22;49010;51.230;-2.306;2022-07-19T04:37:59;23.70;50.70
62916;DHT22;49010;51.230;-2.306;2022-07-19T04:41:41;23.70;50.50
62916;DHT22;49010;51.230;-2.306;2022-07-19T04:45:23;23.60;50.90
62916;DHT22;49010;51.230;-2.306;2022-07-19T04:49:05;23.50;51.00
62916;DHT22;49010;51.230;-2.306;2022-07-19T04:52:47;23.50;51.20
62916;DHT22;49010;51.230;-2.306;2022-07-19T04:56:29;23.50;51.30
62916;DHT22;49010;51.230;-2.306;2022-07-19T05:00:11;23.50;52.50
62916;DHT22;49010;51.230;-2.306;2022-07-19T05:03:53;23.40;51.60
62916;DHT22;49010;51.230;-2.306;2022-07-19T05:07:35;23.50;52.20
62916;DHT22;49010;51.230;-2.306;2022-07-19T05:11:18;23.40;54.30
62916;DHT22;49010;51.230;-2.306;2022-07-19T05:15:00;23.40;53.80
62916;DHT22;49010;51.230;-2.306;2022-07-19T05:18:42;23.50;53.00
62916;DHT22;49010;51.230;-2.306;2022-07-19T05:22:24;23.50;52.80
62916;DHT22;49010;51.230;-2.306;2022-07-19T05:26:06;23.60;51.00
62916;DHT22;49010;51.230;-2.306;2022-07-19T05:29:48;23.70;50.90
62916;DHT22;49010;51.230;-2.306;2022-07-19T05:33:30;23.80;50.90
62916;DHT22;49010;51.230;-2.306;2022-07-19T05:37:13;23.90;50.80
62916;DHT22;49010;51.230;-2.306;2022-07-19T05:40:55;24.00;50.90
62916;DHT22;49010;51.230;-2.306;2022-07-19T05:44:36;24.10;51.00
62916;DHT22;49010;51.230;-2.306;2022-07-19T05:48:18;24.00;51.20
62916;DHT22;49010;51.230;-2.306;2022-07-19T05:52:02;24.10;50.90
62916;DHT22;49010;51.230;-2.306;2022-07-19T05:55:44;24.20;51.20
62916;DHT22;49010;51.230;-2.306;2022-07-19T05:59:26;24.20;50.80
62916;DHT22;49010;51.230;-2.306;2022-07-19T06:03:08;24.20;51.00
62916;DHT22;49010;51.230;-2.306;2022-07-19T06:06:49;24.20;51.20
62916;DHT22;49010;51.230;-2.306;2022-07-19T06:10:34;24.30;51.80
62916;DHT22;49010;51.230;-2.306;2022-07-19T06:14:18;24.30;51.40
62916;DHT22;49010;51.230;-2.306;2022-07-19T06:18:00;24.40;51.20
62916;DHT22;49010;51.230;-2.306;2022-07-19T06:21:47;24.40;51.50
62916;DHT22;49010;51.230;-2.306;2022-07-19T06:25:29;24.60;51.20
62916;DHT22;49010;51.230;-2.306;2022-07-19T06:29:11;24.90;51.00
62916;DHT22;49010;51.230;-2.306;2022-07-19T06:32:53;25.20;50.40
62916;DHT22;49010;51.230;-2.306;2022-07-19T06:36:35;25.60;50.10
62916;DHT22;49010;51.230;-2.306;2022-07-19T06:40:17;26.00;49.40
62916;DHT22;49010;51.230;-2.306;2022-07-19T06:43:59;26.40;48.80
62916;DHT22;49010;51.230;-2.306;2022-07-19T06:47:40;26.90;48.30
62916;DHT22;49010;51.230;-2.306;2022-07-19T06:51:22;27.30;47.50
62916;DHT22;49010;51.230;-2.306;2022-07-19T06:55:05;27.70;46.80
62916;DHT22;49010;51.230;-2.306;2022-07-19T06:58:47;28.10;46.60
62916;DHT22;49010;51.230;-2.306;2022-07-19T07:02:28;28.50;47.30
62916;DHT22;49010;51.230;-2.306;2022-07-19T07:06:10;28.80;45.50
62916;DHT22;49010;51.230;-2.306;2022-07-19T07:09:52;29.10;44.60
62916;DHT22;49010;51.230;-2.306;2022-07-19T07:13:34;29.50;44.50
62916;DHT22;49010;51.230;-2.306;2022-07-19T07:17:16;29.80;42.40
62916;DHT22;49010;51.230;-2.306;2022-07-19T07:20:58;30.20;40.90
62916;DHT22;49010;51.230;-2.306;2022-07-19T07:24:40;30.50;40.20
62916;DHT22;49010;51.230;-2.306;2022-07-19T07:28:23;30.80;39.30
62916;DHT22;49010;51.230;-2.306;2022-07-19T07:32:07;31.10;38.30
62916;DHT22;49010;51.230;-2.306;2022-07-19T07:35:49;31.30;38.50
62916;DHT22;49010;51.230;-2.306;2022-07-19T07:39:31;31.60;38.50
62916;DHT22;49010;51.230;-2.306;2022-07-19T07:43:13;31.80;38.00
62916;DHT22;49010;51.230;-2.306;2022-07-19T07:46:55;31.90;38.20
62916;DHT22;49010;51.230;-2.306;2022-07-19T07:50:36;32.10;37.90
62916;DHT22;49010;51.230;-2.306;2022-07-19T07:54:18;32.40;38.50
62916;DHT22;49010;51.230;-2.306;2022-07-19T07:58:01;32.50;37.90
62916;DHT22;49010;51.230;-2.306;2022-07-19T08:01:43;32.70;37.60
62916;DHT22;49010;51.230;-2.306;2022-07-19T08:05:26;32.80;37.80
62916;DHT22;49010;51.230;-2.306;2022-07-19T08:09:08;33.00;37.50
62916;DHT22;49010;51.230;-2.306;2022-07-19T08:12:51;33.20;38.20
62916;DHT22;49010;51.230;-2.306;2022-07-19T08:16:33;33.50;37.80
62916;DHT22;49010;51.230;-2.306;2022-07-19T08:20:15;33.90;36.90
62916;DHT22;49010;51.230;-2.306;2022-07-19T08:23:57;34.00;36.60
62916;DHT22;49010;51.230;-2.306;2022-07-19T08:27:39;33.90;36.20
62916;DHT22;49010;51.230;-2.306;2022-07-19T08:31:21;33.60;37.10
62916;DHT22;49010;51.230;-2.306;2022-07-19T08:35:04;33.30;36.90
62916;DHT22;49010;51.230;-2.306;2022-07-19T08:38:47;33.10;37.90
62916;DHT22;49010;51.230;-2.306;2022-07-19T08:42:30;33.20;36.90
62916;DHT22;49010;51.230;-2.306;2022-07-19T08:46:19;33.40;36.90
62916;DHT22;49010;51.230;-2.306;2022-07-19T08:50:11;33.80;37.40
62916;DHT22;49010;51.230;-2.306;2022-07-19T08:53:54;34.30;35.50
62916;DHT22;49010;51.230;-2.306;2022-07-19T08:57:36;34.60;34.50
62916;DHT22;49010;51.230;-2.306;2022-07-19T09:01:36;34.40;34.70
62916;DHT22;49010;51.230;-2.306;2022-07-19T09:05:20;34.10;34.20
62916;DHT22;49010;51.230;-2.306;2022-07-19T09:09:03;33.90;34.80
62916;DHT22;49010;51.230;-2.306;2022-07-19T09:20:31;33.10;36.20
62916;DHT22;49010;51.230;-2.306;2022-07-19T09:24:15;33.00;35.10
62916;DHT22;49010;51.230;-2.306;2022-07-19T09:27:57;33.00;35.70
62916;DHT22;49010;51.230;-2.306;2022-07-19T09:31:58;33.00;37.20
62916;DHT22;49010;51.230;-2.306;2022-07-19T09:35:45;33.40;36.90
62916;DHT22;49010;51.230;-2.306;2022-07-19T09:39:28;33.90;35.10
62916;DHT22;49010;51.230;-2.306;2022-07-19T09:43:10;34.50;35.10
62916;DHT22;49010;51.230;-2.306;2022-07-19T09:47:12;35.20;33.50
62916;DHT22;49010;51.230;-2.306;2022-07-19T09:50:55;36.00;33.30
62916;DHT22;49010;51.230;-2.306;2022-07-19T09:54:37;36.80;31.80
62916;DHT22;49010;51.230;-2.306;2022-07-19T09:58:19;37.50;31.20
62916;DHT22;49010;51.230;-2.306;2022-07-19T10:02:02;38.10;30.50
62916;DHT22;49010;51.230;-2.306;2022-07-19T10:05:45;38.70;30.70
62916;DHT22;49010;51.230;-2.306;2022-07-19T10:09:27;39.50;30.70
62916;DHT22;49010;51.230;-2.306;2022-07-19T10:13:11;40.30;29.30
62916;DHT22;49010;51.230;-2.306;2022-07-19T10:20:36;41.40;28.30
62916;DHT22;49010;51.230;-2.306;2022-07-19T10:29:12;42.00;30.00
62916;DHT22;49010;51.230;-2.306;2022-07-19T10:32:56;42.50;29.70
62916;DHT22;49010;51.230;-2.306;2022-07-19T10:36:46;43.10;28.80
62916;DHT22;49010;51.230;-2.306;2022-07-19T10:40:49;43.60;28.00
62916;DHT22;49010;51.230;-2.306;2022-07-19T10:44:32;44.00;27.90
62916;DHT22;49010;51.230;-2.306;2022-07-19T10:48:14;44.30;27.30
62916;DHT22;49010;51.230;-2.306;2022-07-19T10:56:17;45.40;29.10
62916;DHT22;49010;51.230;-2.306;2022-07-19T11:00:00;45.80;27.50
62916;DHT22;49010;51.230;-2.306;2022-07-19T11:03:42;46.00;27.20
62916;DHT22;49010;51.230;-2.306;2022-07-19T11:07:28;46.30;26.80
62916;DHT22;49010;51.230;-2.306;2022-07-19T11:11:12;46.60;26.90
62916;DHT22;49010;51.230;-2.306;2022-07-19T11:14:55;47.00;26.80
62916;DHT22;49010;51.230;-2.306;2022-07-19T11:19:23;47.40;26.10
62916;DHT22;49010;51.230;-2.306;2022-07-19T11:23:05;47.90;28.20
62916;DHT22;49010;51.230;-2.306;2022-07-19T11:26:47;48.00;26.40
62916;DHT22;49010;51.230;-2.306;2022-07-19T11:30:30;47.90;25.90
62916;DHT22;49010;51.230;-2.306;2022-07-19T11:34:13;47.80;28.90
62916;DHT22;49010;51.230;-2.306;2022-07-19T11:37:56;47.60;26.40
62916;DHT22;49010;51.230;-2.306;2022-07-19T11:41:39;47.50;26.50
62916;DHT22;49010;51.230;-2.306;2022-07-19T11:45:26;47.40;26.10
62916;DHT22;49010;51.230;-2.306;2022-07-19T11:49:08;47.50;26.50
62916;DHT22;49010;51.230;-2.306;2022-07-19T11:52:58;47.90;28.50
62916;DHT22;49010;51.230;-2.306;2022-07-19T11:56:43;48.20;26.50
62916;DHT22;49010;51.230;-2.306;2022-07-19T12:00:26;48.30;25.50
62916;DHT22;49010;51.230;-2.306;2022-07-19T12:04:10;48.30;25.50
62916;DHT22;49010;51.230;-2.306;2022-07-19T12:07:57;48.20;25.40
62916;DHT22;49010;51.230;-2.306;2022-07-19T12:11:45;48.00;25.60
62916;DHT22;49010;51.230;-2.306;2022-07-19T12:15:45;47.50;25.70
62916;DHT22;49010;51.230;-2.306;2022-07-19T12:19:29;47.10;27.10
62916;DHT22;49010;51.230;-2.306;2022-07-19T12:23:16;47.00;26.30
62916;DHT22;49010;51.230;-2.306;2022-07-19T12:27:08;47.10;25.40
62916;DHT22;49010;51.230;-2.306;2022-07-19T12:31:03;47.30;26.30
62916;DHT22;49010;51.230;-2.306;2022-07-19T12:34:51;47.60;25.90
62916;DHT22;49010;51.230;-2.306;2022-07-19T12:38:38;47.90;25.10
62916;DHT22;49010;51.230;-2.306;2022-07-19T12:42:19;48.10;25.00
62916;DHT22;49010;51.230;-2.306;2022-07-19T12:46:01;48.10;25.10
62916;DHT22;49010;51.230;-2.306;2022-07-19T12:49:45;48.10;25.50
62916;DHT22;49010;51.230;-2.306;2022-07-19T12:53:27;48.30;25.10
62916;DHT22;49010;51.230;-2.306;2022-07-19T12:57:09;48.50;25.20
62916;DHT22;49010;51.230;-2.306;2022-07-19T13:00:51;48.60;25.10
62916;DHT22;49010;51.230;-2.306;2022-07-19T13:04:39;48.80;25.00
62916;DHT22;49010;51.230;-2.306;2022-07-19T13:08:22;48.90;25.10
62916;DHT22;49010;51.230;-2.306;2022-07-19T13:12:06;48.20;24.90
62916;DHT22;49010;51.230;-2.306;2022-07-19T13:15:49;47.40;25.50
62916;DHT22;49010;51.230;-2.306;2022-07-19T13:19:31;46.50;25.80
62916;DHT22;49010;51.230;-2.306;2022-07-19T13:23:13;45.70;25.90
62916;DHT22;49010;51.230;-2.306;2022-07-19T13:26:55;44.70;26.40
62916;DHT22;49010;51.230;-2.306;2022-07-19T13:30:37;44.00;27.00
62916;DHT22;49010;51.230;-2.306;2022-07-19T13:34:19;43.50;27.40
62916;DHT22;49010;51.230;-2.306;2022-07-19T13:38:01;43.10;27.70
62916;DHT22;49010;51.230;-2.306;2022-07-19T13:41:44;42.90;27.90
62916;DHT22;49010;51.230;-2.306;2022-07-19T13:45:31;42.50;28.00
62916;DHT22;49010;51.230;-2.306;2022-07-19T13:49:14;42.10;28.10
62916;DHT22;49010;51.230;-2.306;2022-07-19T13:52:56;41.80;28.80
62916;DHT22;49010;51.230;-2.306;2022-07-19T13:56:38;41.30;28.70
62916;DHT22;49010;51.230;-2.306;2022-07-19T14:00:21;40.80;29.10
62916;DHT22;49010;51.230;-2.306;2022-07-19T14:04:03;40.30;29.10
62916;DHT22;49010;51.230;-2.306;2022-07-19T14:07:44;39.90;30.10
62916;DHT22;49010;51.230;-2.306;2022-07-19T14:11:26;39.60;29.90
62916;DHT22;49010;51.230;-2.306;2022-07-19T14:15:08;39.20;30.60
62916;DHT22;49010;51.230;-2.306;2022-07-19T14:18:50;38.80;31.40
62916;DHT22;49010;51.230;-2.306;2022-07-19T14:22:32;38.40;31.30
62916;DHT22;49010;51.230;-2.306;2022-07-19T14:26:14;38.20;31.90
62916;DHT22;49010;51.230;-2.306;2022-07-19T14:29:56;37.90;31.90
62916;DHT22;49010;51.230;-2.306;2022-07-19T14:33:38;37.70;32.60
62916;DHT22;49010;51.230;-2.306;2022-07-19T14:37:20;37.40;33.00
62916;DHT22;49010;51.230;-2.306;2022-07-19T14:41:09;37.20;32.10
62916;DHT22;49010;51.230;-2.306;2022-07-19T14:44:52;37.00;33.80
62916;DHT22;49010;51.230;-2.306;2022-07-19T14:48:33;36.80;34.80
62916;DHT22;49010;51.230;-2.306;2022-07-19T14:52:15;36.60;36.60
62916;DHT22;49010;51.230;-2.306;2022-07-19T14:55:57;36.30;37.90
62916;DHT22;49010;51.230;-2.306;2022-07-19T14:59:39;35.90;37.00
62916;DHT22;49010;51.230;-2.306;2022-07-19T15:03:32;35.50;37.50
62916;DHT22;49010;51.230;-2.306;2022-07-19T15:07:14;35.30;38.20
62916;DHT22;49010;51.230;-2.306;2022-07-19T15:10:56;35.30;37.80
62916;DHT22;49010;51.230;-2.306;2022-07-19T15:14:38;35.30;38.30
62916;DHT22;49010;51.230;-2.306;2022-07-19T15:18:20;35.30;37.90
62916;DHT22;49010;51.230;-2.306;2022-07-19T15:22:02;35.30;36.30
62916;DHT22;49010;51.230;-2.306;2022-07-19T15:25:45;35.40;36.30
62916;DHT22;49010;51.230;-2.306;2022-07-19T15:29:26;35.30;37.40
62916;DHT22;49010;51.230;-2.306;2022-07-19T15:33:09;35.40;37.20
62916;DHT22;49010;51.230;-2.306;2022-07-19T15:36:50;35.50;36.20
62916;DHT22;49010;51.230;-2.306;2022-07-19T15:40:33;35.70;36.40
62916;DHT22;49010;51.230;-2.306;2022-07-19T15:44:14;35.80;36.10
62916;DHT22;49010;51.230;-2.306;2022-07-19T15:47:56;35.90;34.70
62916;DHT22;49010;51.230;-2.306;2022-07-19T15:51:38;35.90;34.20
62916;DHT22;49010;51.230;-2.306;2022-07-19T15:55:20;35.90;34.00
62916;DHT22;49010;51.230;-2.306;2022-07-19T15:59:02;35.80;34.90
62916;DHT22;49010;51.230;-2.306;2022-07-19T16:02:44;35.90;34.90
62916;DHT22;49010;51.230;-2.306;2022-07-19T16:06:26;36.00;34.80
62916;DHT22;49010;51.230;-2.306;2022-07-19T16:10:08;36.10;35.10
62916;DHT22;49010;51.230;-2.306;2022-07-19T16:13:50;36.20;34.50
62916;DHT22;49010;51.230;-2.306;2022-07-19T16:17:32;36.10;34.60
62916;DHT22;49010;51.230;-2.306;2022-07-19T16:21:15;35.90;34.90
62916;DHT22;49010;51.230;-2.306;2022-07-19T16:24:57;36.00;35.40
62916;DHT22;49010;51.230;-2.306;2022-07-19T16:28:39;36.00;35.60
62916;DHT22;49010;51.230;-2.306;2022-07-19T16:32:21;36.00;35.20
62916;DHT22;49010;51.230;-2.306;2022-07-19T16:36:03;35.90;35.40
62916;DHT22;49010;51.230;-2.306;2022-07-19T16:39:45;35.90;35.60
62916;DHT22;49010;51.230;-2.306;2022-07-19T16:43:27;36.00;36.80
62916;DHT22;49010;51.230;-2.306;2022-07-19T16:47:09;36.00;38.90
62916;DHT22;49010;51.230;-2.306;2022-07-19T16:50:51;35.90;39.20
62916;DHT22;49010;51.230;-2.306;2022-07-19T16:54:34;35.90;39.40
62916;DHT22;49010;51.230;-2.306;2022-07-19T16:58:16;35.90;39.60
62916;DHT22;49010;51.230;-2.306;2022-07-19T17:01:58;35.90;39.00
62916;DHT22;49010;51.230;-2.306;2022-07-19T17:05:40;35.80;39.20
62916;DHT22;49010;51.230;-2.306;2022-07-19T17:09:24;35.60;39.40
62916;DHT22;49010;51.230;-2.306;2022-07-19T17:13:06;35.50;39.80
62916;DHT22;49010;51.230;-2.306;2022-07-19T17:16:48;35.40;39.70
62916;DHT22;49010;51.230;-2.306;2022-07-19T17:20:31;35.20;40.10
62916;DHT22;49010;51.230;-2.306;2022-07-19T17:24:13;35.20;39.70
62916;DHT22;49010;51.230;-2.306;2022-07-19T17:27:55;35.10;39.50
62916;DHT22;49010;51.230;-2.306;2022-07-19T17:31:37;35.00;40.40
62916;DHT22;49010;51.230;-2.306;2022-07-19T17:35:20;34.80;40.10
62916;DHT22;49010;51.230;-2.306;2022-07-19T17:39:02;34.70;40.50
62916;DHT22;49010;51.230;-2.306;2022-07-19T17:42:44;34.50;40.50
62916;DHT22;49010;51.230;-2.306;2022-07-19T17:46:26;34.40;40.60
62916;DHT22;49010;51.230;-2.306;2022-07-19T17:50:08;34.40;40.30
62916;DHT22;49010;51.230;-2.306;2022-07-19T17:53:50;34.30;40.60
62916;DHT22;49010;51.230;-2.306;2022-07-19T17:57:33;34.10;40.60
62916;DHT22;49010;51.230;-2.306;2022-07-19T18:01:14;33.90;40.60
62916;DHT22;49010;51.230;-2.306;2022-07-19T18:04:56;33.80;41.10
62916;DHT22;49010;51.230;-2.306;2022-07-19T18:08:39;33.70;41.30
62916;DHT22;49010;51.230;-2.306;2022-07-19T18:12:21;33.60;41.00
62916;DHT22;49010;51.230;-2.306;2022-07-19T18:16:03;33.50;41.20
62916;DHT22;49010;51.230;-2.306;2022-07-19T18:20:08;33.50;41.70
62916;DHT22;49010;51.230;-2.306;2022-07-19T18:23:50;33.40;41.70
62916;DHT22;49010;51.230;-2.306;2022-07-19T18:27:32;33.20;42.00
62916;DHT22;49010;51.230;-2.306;2022-07-19T18:31:14;33.00;42.40
62916;DHT22;49010;51.230;-2.306;2022-07-19T18:34:56;32.80;42.90
62916;DHT22;49010;51.230;-2.306;2022-07-19T18:38:38;32.60;43.40
62916;DHT22;49010;51.230;-2.306;2022-07-19T18:42:20;32.40;44.50
62916;DHT22;49010;51.230;-2.306;2022-07-19T18:46:03;32.20;44.40
62916;DHT22;49010;51.230;-2.306;2022-07-19T18:49:46;32.10;44.80
62916;DHT22;49010;51.230;-2.306;2022-07-19T18:53:29;31.90;45.40
62916;DHT22;49010;51.230;-2.306;2022-07-19T18:57:11;31.80;45.70
62916;DHT22;49010;51.230;-2.306;2022-07-19T19:00:53;31.60;45.90
62916;DHT22;49010;51.230;-2.306;2022-07-19T19:04:39;31.50;46.20
62916;DHT22;49010;51.230;-2.306;2022-07-19T19:08:21;31.40;46.60
62916;DHT22;49010;51.230;-2.306;2022-07-19T19:12:03;31.20;46.70
62916;DHT22;49010;51.230;-2.306;2022-07-19T19:15:45;31.10;46.70
62916;DHT22;49010;51.230;-2.306;2022-07-19T19:19:27;31.00;47.30
62916;DHT22;49010;51.230;-2.306;2022-07-19T19:23:10;30.80;47.70
62916;DHT22;49010;51.230;-2.306;2022-07-19T19:26:53;30.60;47.90
62916;DHT22;49010;51.230;-2.306;2022-07-19T19:30:35;30.60;48.10
62916;DHT22;49010;51.230;-2.306;2022-07-19T19:34:17;30.60;48.30
62916;DHT22;49010;51.230;-2.306;2022-07-19T19:38:02;30.60;47.60
62916;DHT22;49010;51.230;-2.306;2022-07-19T19:41:44;30.50;47.20
62916;DHT22;49010;51.230;-2.306;2022-07-19T19:45:27;30.40;47.00
62916;DHT22;49010;51.230;-2.306;2022-07-19T19:49:09;30.30;47.20
62916;DHT22;49010;51.230;-2.306;2022-07-19T19:52:51;30.20;47.20
62916;DHT22;49010;51.230;-2.306;2022-07-19T19:56:32;30.20;47.60
62916;DHT22;49010;51.230;-2.306;2022-07-19T20:00:15;30.00;47.50
62916;DHT22;49010;51.230;-2.306;2022-07-19T20:03:57;29.90;47.70
62916;DHT22;49010;51.230;-2.306;2022-07-19T20:07:40;29.70;48.10
62916;DHT22;49010;51.230;-2.306;2022-07-19T20:11:22;29.60;48.50
62916;DHT22;49010;51.230;-2.306;2022-07-19T20:15:05;29.50;48.50
62916;DHT22;49010;51.230;-2.306;2022-07-19T20:18:47;29.40;48.80
62916;DHT22;49010;51.230;-2.306;2022-07-19T20:22:30;29.20;49.60
62916;DHT22;49010;51.230;-2.306;2022-07-19T20:26:12;29.10;50.20
62916;DHT22;49010;51.230;-2.306;2022-07-19T20:29:54;29.00;50.70
62916;DHT22;49010;51.230;-2.306;2022-07-19T20:33:36;28.80;51.30
62916;DHT22;49010;51.230;-2.306;2022-07-19T20:37:19;28.60;52.10
62916;DHT22;49010;51.230;-2.306;2022-07-19T20:41:01;28.50;52.70
62916;DHT22;49010;51.230;-2.306;2022-07-19T20:44:43;28.30;53.30
62916;DHT22;49010;51.230;-2.306;2022-07-19T20:48:25;28.10;53.80
62916;DHT22;49010;51.230;-2.306;2022-07-19T20:52:07;28.00;54.30
62916;DHT22;49010;51.230;-2.306;2022-07-19T20:55:49;27.80;54.90
62916;DHT22;49010;51.230;-2.306;2022-07-19T20:59:31;27.50;55.30
62916;DHT22;49010;51.230;-2.306;2022-07-19T21:03:13;27.30;55.90
62916;DHT22;49010;51.230;-2.306;2022-07-19T21:06:54;27.20;56.40
62916;DHT22;49010;51.230;-2.306;2022-07-19T21:10:36;27.00;56.80
62916;DHT22;49010;51.230;-2.306;2022-07-19T21:14:19;26.90;57.00
62916;DHT22;49010;51.230;-2.306;2022-07-19T21:18:01;26.80;57.30
62916;DHT22;49010;51.230;-2.306;2022-07-19T21:21:43;26.70;57.50
62916;DHT22;49010;51.230;-2.306;2022-07-19T21:25:25;26.60;57.70
62916;DHT22;49010;51.230;-2.306;2022-07-19T21:29:07;26.40;58.40
62916;DHT22;49010;51.230;-2.306;2022-07-19T21:32:49;26.30;58.60
62916;DHT22;49010;51.230;-2.306;2022-07-19T21:36:33;26.10;58.90
62916;DHT22;49010;51.230;-2.306;2022-07-19T21:40:17;26.00;59.60
62916;DHT22;49010;51.230;-2.306;2022-07-19T21:44:01;25.80;60.10
62916;DHT22;49010;51.230;-2.306;2022-07-19T21:47:43;25.70;60.30
62916;DHT22;49010;51.230;-2.306;2022-07-19T21:51:25;25.60;60.50
62916;DHT22;49010;51.230;-2.306;2022-07-19T21:55:08;25.50;60.90
62916;DHT22;49010;51.230;-2.306;2022-07-19T21:58:50;25.40;61.60
62916;DHT22;49010;51.230;-2.306;2022-07-19T22:02:32;25.30;61.90
62916;DHT22;49010;51.230;-2.306;2022-07-19T22:06:14;25.20;62.40
62916;DHT22;49010;51.230;-2.306;2022-07-19T22:09:56;25.10;62.50
62916;DHT22;49010;51.230;-2.306;2022-07-19T22:13:39;25.00;62.80
62916;DHT22;49010;51.230;-2.306;2022-07-19T22:17:21;24.90;63.10
62916;DHT22;49010;51.230;-2.306;2022-07-19T22:21:03;24.90;63.50
62916;DHT22;49010;51.230;-2.306;2022-07-19T22:24:45;24.70;64.20
62916;DHT22;49010;51.230;-2.306;2022-07-19T22:28:27;24.60;64.60
62916;DHT22;49010;51.230;-2.306;2022-07-19T22:32:09;24.50;64.60
62916;DHT22;49010;51.230;-2.306;2022-07-19T22:35:50;24.50;64.50
62916;DHT22;49010;51.230;-2.306;2022-07-19T22:39:32;24.50;64.60
62916;DHT22;49010;51.230;-2.306;2022-07-19T22:43:14;24.50;64.70
62916;DHT22;49010;51.230;-2.306;2022-07-19T22:46:56;24.50;64.80
62916;DHT22;49010;51.230;-2.306;2022-07-19T22:50:38;24.40;64.90
62916;DHT22;49010;51.230;-2.306;2022-07-19T22:54:20;24.40;65.00
62916;DHT22;49010;51.230;-2.306;2022-07-19T22:58:03;24.30;65.30
62916;DHT22;49010;51.230;-2.306;2022-07-19T23:01:45;24.30;65.30
62916;DHT22;49010;51.230;-2.306;2022-07-19T23:05:36;24.30;65.60
62916;DHT22;49010;51.230;-2.306;2022-07-19T23:09:18;24.20;65.80
62916;DHT22;49010;51.230;-2.306;2022-07-19T23:13:00;24.10;66.30
62916;DHT22;49010;51.230;-2.306;2022-07-19T23:16:43;24.00;66.80
62916;DHT22;49010;51.230;-2.306;2022-07-19T23:20:25;23.90;67.30
62916;DHT22;49010;51.230;-2.306;2022-07-19T23:24:07;23.80;67.50